Terminal Aerodrome Forecast
Issued by NWS Billings, MT

Home | Current Version | Previous Version | Graphics & Text | Print | Product List | Glossary On
Versions: 1 2 3 4 5 6 7 8 9 10 11 12 13 14 15 16 17 18 19 20 21 22 23 24 25 26 27 28 29
000
FTUS45 KBYZ 062329
TAFMLS
TAF
KMLS 062329Z 0700/0724 31030G40KT P6SM VCSH SCT050 OVC200
     FM070400 29022KT P6SM SCT060 SCT200 WS020/31050KT
     FM071700 30020G35KT P6SM FEW060 SCT200=

USA.gov is the U.S. government's official web portal to all federal, state and local government web resources and services.